Time;durP1;ratioP1;P1;durP2;ratioP2;P2;SDS_P1;SDS_P2;PMS_P1;PMS_P2;Temp;Humidity;BMP_temperature;BMP_pressure;BME280_temperature;BME280_humidity;BME280_pressure;Samples;Min_cycle;Max_cycle;Signal;HPM_P1;HPM_P2
2022/03/31 00:01:35;;;;;;;;;;;;;;;8.33;79.76;99775.98;1770417;81;20216;-59
2022/03/31 00:04:48;;;;;;;;;;;;;;;8.33;79.93;99776.84;1769382;81;20176;-57
2022/03/31 00:08:09;;;;;;;;;;;;;;;8.34;80.00;99771.71;1768603;81;20559;-59
2022/03/31 00:11:19;;;;;;;;;;;;;;;8.35;79.87;99772.06;1770431;81;20228;-57
2022/03/31 00:14:24;;;;;;;;;;;;;;;8.33;79.70;99769.16;1770032;81;20247;-58
2022/03/31 00:17:31;;;;;;;;;;;;;;;8.32;79.81;99764.25;1733168;83;20250;-58
2022/03/31 00:20:54;;;;;;;;;;;;;;;8.31;79.86;99761.70;1770556;81;20199;-59
2022/03/31 00:23:50;;;;;;;;;;;;;;;8.27;80.15;99762.55;1769946;81;20263;-57
2022/03/31 00:27:01;;;;;;;;;;;;;;;8.29;80.48;99764.56;1733562;83;20238;-57
2022/03/31 00:30:13;;;;;;;;;;;;;;;8.32;80.40;99764.75;1770366;81;20188;-57
2022/03/31 00:33:20;;;;;;;;;;;;;;;8.27;80.23;99771.23;1770280;81;20247;-58
2022/03/31 00:36:29;;;;;;;;;;;;;;;8.27;80.33;99775.33;1770489;81;20274;-57
2022/03/31 00:39:35;;;;;;;;;;;;;;;8.27;80.48;99769.38;1770360;81;20290;-57
2022/03/31 00:42:58;;;;;;;;;;;;;;;8.31;80.68;99768.52;1770500;81;20215;-56
2022/03/31 00:46:06;;;;;;;;;;;;;;;8.37;80.70;99768.62;1801874;79;20201;-56
2022/03/31 00:49:14;;;;;;;;;;;;;;;8.41;80.61;99768.62;1790652;79;20209;-56
2022/03/31 00:52:21;;;;;;;;;;;;;;;8.44;80.38;99767.41;1807648;79;20281;-57
2022/03/31 00:55:29;;;;;;;;;;;;;;;8.42;80.23;99755.31;1807216;79;20217;-57
2022/03/31 00:58:39;;;;;;;;;;;;;;;8.43;80.19;99753.45;1807250;79;20190;-57
2022/03/31 01:01:47;;;;;;;;;;;;;;;8.45;80.19;99750.04;1807417;79;20245;-56
2022/03/31 01:04:53;;;;;;;;;;;;;;;8.48;80.19;99741.50;1807230;79;20206;-56
2022/03/31 01:07:58;;;;;;;;;;;;;;;8.49;80.11;99745.91;1807057;79;20193;-57
2022/03/31 01:11:10;;;;;;;;;;;;;;;8.46;79.88;99737.59;1807423;79;20217;-58
2022/03/31 01:14:20;;;;;;;;;;;;;;;8.36;79.79;99736.08;1739721;82;20262;-58
2022/03/31 01:17:29;;;;;;;;;;;;;;;8.33;80.11;99736.44;1738775;82;20286;-57
2022/03/31 01:20:40;;;;;;;;;;;;;;;8.35;80.31;99733.89;1738941;82;20249;-57
2022/03/31 01:23:47;;;;;;;;;;;;;;;8.40;80.39;99736.08;1739354;82;20266;-57
2022/03/31 01:27:02;;;;;;;;;;;;;;;8.42;80.46;99738.12;1807229;79;20197;-57
2022/03/31 01:30:10;;;;;;;;;;;;;;;8.45;80.47;99744.05;1807517;79;20265;-58
2022/03/31 01:33:17;;;;;;;;;;;;;;;8.46;80.51;99750.36;1806748;79;20257;-58
2022/03/31 01:36:26;;;;;;;;;;;;;;;8.49;80.64;99758.19;1771323;79;20237;-57
2022/03/31 01:39:35;;;;;;;;;;;;;;;8.52;80.64;99755.96;1790023;79;20201;-57
2022/03/31 01:42:42;;;;;;;;;;;;;;;8.53;80.63;99758.19;1807352;79;20209;-57
2022/03/31 01:45:52;;;;;;;;;;;;;;;8.56;80.76;99758.65;1803990;79;20237;-57
2022/03/31 01:49:04;;;;;;;;;;;;;;;8.61;80.87;99763.60;1801859;80;20274;-58
2022/03/31 01:52:27;;;;;;;;;;;;;;;8.64;80.84;99765.43;1802087;80;20233;-56
2022/03/31 01:55:29;;;;;;;;;;;;;;;8.69;80.86;99776.66;1802005;80;20170;-58
2022/03/31 01:58:35;;;;;;;;;;;;;;;8.68;80.53;99772.25;1802015;80;20221;-57
2022/03/31 02:01:44;;;;;;;;;;;;;;;8.63;80.59;99766.98;1801994;80;20205;-57
2022/03/31 02:04:58;;;;;;;;;;;;;;;8.64;80.71;99776.34;1802037;80;20186;-56
2022/03/31 02:08:04;;;;;;;;;;;;;;;8.68;80.88;99776.34;1802163;80;20205;-57
2022/03/31 02:11:13;;;;;;;;;;;;;;;8.72;80.88;99767.29;1801976;80;20217;-57
2022/03/31 02:14:25;;;;;;;;;;;;;;;8.76;80.75;99721.73;1802037;80;20260;-57
2022/03/31 02:17:25;;;;;;;;;;;;;;;8.77;80.52;99683.84;1802037;80;20233;-57
2022/03/31 02:20:22;;;;;;;;;;;;;;;8.75;80.36;99703.63;1802049;79;20210;-56
2022/03/31 02:23:09;;;;;;;;;;;;;;;8.76;80.28;99715.41;1802022;80;20193;-58
2022/03/31 02:26:06;;;;;;;;;;;;;;;8.74;80.27;99742.02;1801970;80;20174;-57
2022/03/31 02:29:03;;;;;;;;;;;;;;;8.76;80.39;99733.14;1802287;80;20174;-56
2022/03/31 02:32:02;;;;;;;;;;;;;;;8.78;80.46;99714.72;1802356;80;20174;-56
2022/03/31 02:34:51;;;;;;;;;;;;;;;8.82;80.55;99730.55;1802347;80;20229;-57
2022/03/31 02:37:56;;;;;;;;;;;;;;;8.86;80.59;99752.88;1800242;79;20197;-57
2022/03/31 02:41:05;;;;;;;;;;;;;;;8.89;80.55;99766.16;1785094;80;20186;-57
2022/03/31 02:44:17;;;;;;;;;;;;;;;8.85;80.42;99760.70;1802724;80;20193;-59
2022/03/31 02:47:24;;;;;;;;;;;;;;;8.82;80.58;99754.25;1798198;79;20226;-58
2022/03/31 02:50:33;;;;;;;;;;;;;;;8.83;80.65;99752.70;1802476;80;20185;-58
2022/03/31 02:57:07;;;;;;;;;;;;;;;8.81;80.43;99706.17;1802504;80;20182;-58
2022/03/31 03:00:19;;;;;;;;;;;;;;;8.75;80.61;99698.72;1802421;80;20178;-58
2022/03/31 03:03:24;;;;;;;;;;;;;;;8.74;80.98;99703.31;1802350;80;20252;-58
2022/03/31 03:06:29;;;;;;;;;;;;;;;8.79;81.14;99718.63;1802436;80;20182;-56
2022/03/31 03:09:36;;;;;;;;;;;;;;;8.86;81.15;99754.23;1802568;80;20186;-58
2022/03/31 03:12:47;;;;;;;;;;;;;;;8.88;81.09;99748.92;1802342;80;20194;-58
2022/03/31 03:16:07;;;;;;;;;;;;;;;8.92;81.14;99788.49;1802430;80;20226;-60
2022/03/31 03:19:11;;;;;;;;;;;;;;;8.97;81.11;99733.35;1802337;80;20248;-57
2022/03/31 03:22:19;;;;;;;;;;;;;;;8.99;81.07;99729.94;1786849;80;20194;-58
2022/03/31 03:25:29;;;;;;;;;;;;;;;8.99;81.06;99714.38;1802482;80;20205;-58
2022/03/31 03:28:41;;;;;;;;;;;;;;;8.93;80.84;99693.79;1802795;80;20185;-58
2022/03/31 03:31:52;;;;;;;;;;;;;;;8.90;81.03;99681.37;1802370;80;20169;-58
2022/03/31 03:35:07;;;;;;;;;;;;;;;8.92;81.19;99660.20;1802772;80;20193;-58
2022/03/31 03:38:14;;;;;;;;;;;;;;;8.95;81.33;99657.11;1802575;80;20478;-59
2022/03/31 03:41:25;;;;;;;;;;;;;;;9.00;81.51;99671.06;1802674;80;20280;-57
2022/03/31 03:44:32;;;;;;;;;;;;;;;9.05;81.57;99670.51;1802536;80;20258;-58
2022/03/31 03:47:39;;;;;;;;;;;;;;;9.06;81.52;99658.54;1789824;80;20204;-57
2022/03/31 03:50:47;;;;;;;;;;;;;;;9.06;81.53;99655.31;1764016;81;20200;-57
2022/03/31 03:53:52;;;;;;;;;;;;;;;9.07;81.48;99658.86;1764128;81;20453;-57
2022/03/31 03:57:05;;;;;;;;;;;;;;;9.07;81.57;99664.32;1764374;81;20255;-57
2022/03/31 04:00:13;;;;;;;;;;;;;;;9.11;81.70;99697.06;1759321;81;20227;-58
2022/03/31 04:03:20;;;;;;;;;;;;;;;9.16;81.58;99682.86;1747610;81;20477;-59
2022/03/31 04:06:26;;;;;;;;;;;;;;;9.16;81.56;99653.69;1764143;81;20507;-58
2022/03/31 04:09:36;;;;;;;;;;;;;;;9.18;81.59;99654.33;1763676;81;20580;-57
2022/03/31 04:12:42;;;;;;;;;;;;;;;9.23;81.55;99666.91;1763727;81;20560;-58
2022/03/31 04:15:51;;;;;;;;;;;;;;;9.27;81.41;99617.73;1763648;81;20188;-59
2022/03/31 04:19:03;;;;;;;;;;;;;;;9.30;81.30;99662.42;1763684;81;20227;-58
2022/03/31 04:22:12;;;;;;;;;;;;;;;9.36;81.09;99628.04;1763743;81;20184;-58
2022/03/31 04:25:18;;;;;;;;;;;;;;;9.37;80.71;99680.28;1763455;81;20457;-57
2022/03/31 04:28:30;;;;;;;;;;;;;;;9.35;80.28;99698.23;1763755;81;20216;-57
2022/03/31 04:31:41;;;;;;;;;;;;;;;9.34;80.21;99758.50;1763827;81;20212;-57
2022/03/31 04:34:46;;;;;;;;;;;;;;;9.34;79.99;99724.36;1763771;81;20265;-56
2022/03/31 04:37:52;;;;;;;;;;;;;;;9.30;79.84;99760.74;1763748;81;20235;-56
2022/03/31 04:41:02;;;;;;;;;;;;;;;9.29;79.79;99759.05;1763811;81;20268;-56
2022/03/31 04:44:18;;;;;;;;;;;;;;;9.31;79.74;99751.50;1763762;81;20235;-57
2022/03/31 04:47:24;;;;;;;;;;;;;;;9.32;79.43;99730.52;1763829;81;20216;-57
2022/03/31 04:50:29;;;;;;;;;;;;;;;9.23;78.98;99737.09;1803661;79;20438;-56
2022/03/31 04:53:39;;;;;;;;;;;;;;;9.07;78.41;99727.11;1783589;80;20190;-57
2022/03/31 04:56:48;;;;;;;;;;;;;;;8.94;78.59;99763.20;1778697;79;20271;-57
2022/03/31 04:59:57;;;;;;;;;;;;;;;8.90;78.73;99752.33;1774921;80;20211;-59
2022/03/31 05:03:02;;;;;;;;;;;;;;;8.92;78.67;99727.08;1780726;79;20198;-57
2022/03/31 05:06:06;;;;;;;;;;;;;;;8.95;78.71;99698.56;1801482;79;20206;-59
2022/03/31 05:09:18;;;;;;;;;;;;;;;8.98;78.49;99664.92;1802050;79;20217;-60
2022/03/31 05:12:22;;;;;;;;;;;;;;;9.03;78.31;99638.44;1800602;79;20209;-59
2022/03/31 05:15:29;;;;;;;;;;;;;;;9.10;77.99;99614.84;1801621;79;20261;-58
2022/03/31 05:18:39;;;;;;;;;;;;;;;9.21;77.91;99618.48;1790815;79;20230;-58
2022/03/31 05:21:47;;;;;;;;;;;;;;;9.37;77.61;99620.20;1792621;79;20229;-57
2022/03/31 05:24:52;;;;;;;;;;;;;;;9.51;77.15;99661.70;1806341;79;20213;-56
2022/03/31 05:28:06;;;;;;;;;;;;;;;9.52;75.85;99682.52;1805879;79;20205;-58
2022/03/31 05:31:22;;;;;;;;;;;;;;;9.40;75.89;99621.19;1805299;79;20209;-57
2022/03/31 05:34:30;;;;;;;;;;;;;;;9.41;75.74;99616.05;1798853;79;20214;-58
2022/03/31 05:37:41;;;;;;;;;;;;;;;9.42;75.89;99606.30;1795287;79;20205;-58
2022/03/31 05:40:51;;;;;;;;;;;;;;;9.46;75.52;99637.69;1796192;79;20210;-58
2022/03/31 05:44:00;;;;;;;;;;;;;;;9.43;75.09;99602.55;1795368;79;20281;-55
2022/03/31 05:47:08;;;;;;;;;;;;;;;9.44;75.14;99632.05;1786341;79;20238;-57
2022/03/31 05:50:22;;;;;;;;;;;;;;;9.41;74.94;99648.31;1798289;79;20242;-58
2022/03/31 05:53:29;;;;;;;;;;;;;;;9.38;74.94;99669.17;1793098;79;20253;-57
2022/03/31 05:56:37;;;;;;;;;;;;;;;9.33;74.63;99688.50;1778197;80;20206;-58
2022/03/31 05:59:45;;;;;;;;;;;;;;;9.26;74.93;99678.00;1796022;79;20209;-57
2022/03/31 06:02:57;;;;;;;;;;;;;;;9.19;75.05;99668.84;1801443;79;20510;-57
2022/03/31 06:06:04;;;;;;;;;;;;;;;9.14;75.28;99661.20;1789554;79;20249;-58
2022/03/31 06:09:14;;;;;;;;;;;;;;;9.17;75.51;99643.59;1730556;82;20237;-59
2022/03/31 06:12:23;;;;;;;;;;;;;;;9.22;75.69;99715.75;1799621;79;20271;-59
2022/03/31 06:15:37;;;;;;;;;;;;;;;9.33;75.73;99667.52;1795117;79;20230;-57
2022/03/31 06:18:54;;;;;;;;;;;;;;;9.37;75.43;99683.84;1793632;79;20213;-56
2022/03/31 06:21:59;;;;;;;;;;;;;;;9.41;75.46;99686.55;1796162;79;20209;-57
2022/03/31 06:25:06;;;;;;;;;;;;;;;9.54;75.35;99688.14;1716067;82;20242;-58
2022/03/31 06:28:17;;;;;;;;;;;;;;;9.68;75.12;99673.64;1724822;82;20658;-58
2022/03/31 06:31:34;;;;;;;;;;;;;;;9.75;74.56;99669.64;1798288;79;20213;-59
2022/03/31 06:34:43;;;;;;;;;;;;;;;9.74;74.57;99652.39;1784523;79;20257;-59
2022/03/31 06:37:52;;;;;;;;;;;;;;;9.74;74.51;99631.89;1714423;82;20203;-58
2022/03/31 06:41:23;;;;;;;;;;;;;;;;;;;;;
2022/03/31 06:44:29;;;;;;;;;;;;;;;9.90;74.93;99641.27;1790004;79;20193;-58
2022/03/31 06:47:37;;;;;;;;;;;;;;;10.02;74.40;99633.44;1780042;79;20207;-58
2022/03/31 06:50:49;;;;;;;;;;;;;;;10.13;74.35;99639.27;1773144;80;20564;-59
2022/03/31 06:53:59;;;;;;;;;;;;;;;10.28;74.14;99662.00;1795543;78;20233;-59
2022/03/31 06:57:14;;;;;;;;;;;;;;;10.36;73.85;99641.88;1791303;80;20237;-59
2022/03/31 07:00:24;;;;;;;;;;;;;;;10.38;73.51;99639.30;1791937;80;20205;-58
2022/03/31 07:03:37;;;;;;;;;;;;;;;10.40;73.40;99635.83;1813832;78;20217;-57
2022/03/31 07:06:44;;;;;;;;;;;;;;;10.45;73.41;99627.89;1743378;80;20435;-59
2022/03/31 07:09:56;;;;;;;;;;;;;;;10.45;73.20;99621.05;1745420;81;20239;-59
2022/03/31 07:13:20;;;;;;;;;;;;;;;10.39;73.30;99620.46;1744484;81;20261;-57
2022/03/31 07:16:33;;;;;;;;;;;;;;;10.40;73.64;99613.94;1748543;79;20210;-56
2022/03/31 07:19:42;;;;;;;;;;;;;;;10.48;73.80;99626.67;1737691;82;20217;-56
2022/03/31 07:22:52;;;;;;;;;;;;;;;10.63;73.91;99617.88;1741251;80;20225;-57
2022/03/31 07:26:06;;;;;;;;;;;;;;;10.80;73.92;99611.09;1769591;81;20544;-58
2022/03/31 07:29:14;;;;;;;;;;;;;;;11.06;73.76;99597.65;1769256;81;20239;-56
2022/03/31 07:32:27;;;;;;;;;;;;;;;11.33;72.86;99593.22;1747644;80;20194;-55
2022/03/31 07:35:47;;;;;;;;;;;;;;;11.47;72.01;99590.88;1747738;80;20228;-58
2022/03/31 07:39:17;;;;;;;;;;;;;;;11.63;71.60;99591.45;1752425;81;20709;-57
2022/03/31 07:42:34;;;;;;;;;;;;;;;11.88;70.97;99589.05;1740841;80;20218;-57
2022/03/31 07:45:44;;;;;;;;;;;;;;;11.94;69.85;99590.45;1751371;80;20564;-56
2022/03/31 07:48:49;;;;;;;;;;;;;;;11.95;69.60;99589.94;1761892;81;20207;-57
2022/03/31 07:51:59;;;;;;;;;;;;;;;11.94;69.76;99600.05;1736316;80;20202;-56
2022/03/31 07:55:08;;;;;;;;;;;;;;;12.00;69.63;99549.03;1738792;82;20234;-57
2022/03/31 07:58:17;;;;;;;;;;;;;;;12.09;69.46;99562.88;1739168;82;20641;-57
2022/03/31 08:01:28;;;;;;;;;;;;;;;12.15;69.06;99579.88;1739044;82;20218;-58
2022/03/31 08:04:38;;;;;;;;;;;;;;;12.16;69.06;99579.38;1739290;82;20211;-58
2022/03/31 08:07:48;;;;;;;;;;;;;;;12.22;69.01;99568.42;1739650;82;20203;-59
2022/03/31 08:11:02;;;;;;;;;;;;;;;12.29;69.20;99566.52;1738898;81;20194;-58
2022/03/31 08:14:21;;;;;;;;;;;;;;;;;;;;;
2022/03/31 08:17:24;;;;;;;;;;;;;;;12.54;68.58;99552.54;1756755;80;20211;-57
2022/03/31 08:20:37;;;;;;;;;;;;;;;12.64;68.17;99561.74;1748093;81;20194;-57
2022/03/31 08:23:45;;;;;;;;;;;;;;;12.70;68.05;99559.01;1757656;81;20212;-56
2022/03/31 08:27:01;;;;;;;;;;;;;;;12.78;67.74;99562.11;1744164;81;20287;-57
2022/03/31 08:30:19;;;;;;;;;;;;;;;;;;;;;
2022/03/31 08:33:27;;;;;;;;;;;;;;;12.88;67.59;99538.64;1743456;82;20261;-58
2022/03/31 08:36:31;;;;;;;;;;;;;;;13.08;67.55;99538.13;1749862;82;20238;-58
2022/03/31 08:39:47;;;;;;;;;;;;;;;13.30;66.88;99544.27;1706147;82;20245;-57
2022/03/31 08:42:56;;;;;;;;;;;;;;;13.47;66.50;99537.24;1720101;82;20216;-58
2022/03/31 08:46:09;;;;;;;;;;;;;;;13.67;65.91;99543.53;1720464;83;20326;-58
2022/03/31 08:49:21;;;;;;;;;;;;;;;13.83;64.91;99543.05;1720625;83;20211;-58
2022/03/31 08:52:26;;;;;;;;;;;;;;;14.00;64.49;99541.50;1720922;83;20603;-57
2022/03/31 08:55:41;;;;;;;;;;;;;;;14.16;64.12;99539.62;1721158;83;20671;-57
2022/03/31 08:58:54;;;;;;;;;;;;;;;14.29;63.52;99540.98;1721426;83;20247;-59
2022/03/31 09:02:09;;;;;;;;;;;;;;;14.40;63.44;99531.16;1730242;80;20241;-55
2022/03/31 09:05:19;;;;;;;;;;;;;;;14.56;62.28;99530.11;1721874;82;20212;-57
2022/03/31 09:08:27;;;;;;;;;;;;;;;14.64;61.78;99522.11;1741929;82;20211;-56
2022/03/31 09:11:46;;;;;;;;;;;;;;;14.67;61.61;99517.53;1750775;80;20210;-57
2022/03/31 09:14:58;;;;;;;;;;;;;;;14.70;61.47;99508.81;1750458;80;20210;-56
2022/03/31 09:18:11;;;;;;;;;;;;;;;14.79;61.66;99507.49;1751645;82;20249;-57
2022/03/31 09:21:23;;;;;;;;;;;;;;;14.85;61.30;99483.17;1733314;81;20194;-56
2022/03/31 09:24:39;;;;;;;;;;;;;;;14.91;61.17;99494.66;1746215;81;20241;-56
2022/03/31 09:28:01;;;;;;;;;;;;;;;14.94;60.79;99490.08;1733232;81;20243;-56
2022/03/31 09:31:14;;;;;;;;;;;;;;;15.02;61.07;99469.12;1718798;83;20216;-57
2022/03/31 09:34:27;;;;;;;;;;;;;;;15.13;61.00;99473.06;1710473;83;20224;-56
2022/03/31 09:37:44;;;;;;;;;;;;;;;15.24;61.00;99473.13;1732827;82;20601;-57
2022/03/31 09:41:03;;;;;;;;;;;;;;;15.38;60.48;99476.09;1741176;82;20214;-57
2022/03/31 09:44:07;;;;;;;;;;;;;;;15.51;59.96;99463.53;1744279;82;20225;-58
2022/03/31 09:47:20;;;;;;;;;;;;;;;15.62;59.68;99459.19;1725866;82;20323;-56
2022/03/31 09:50:40;;;;;;;;;;;;;;;15.73;59.35;99457.03;1741524;81;20625;-56
2022/03/31 09:53:42;;;;;;;;;;;;;;;15.83;58.42;99459.54;1743360;82;20607;-57
2022/03/31 09:57:10;;;;;;;;;;;;;;;15.85;58.40;99449.12;1721674;81;20582;-56
2022/03/31 10:00:32;;;;;;;;;;;;;;;15.95;58.46;99449.38;1738686;82;20182;-57
2022/03/31 10:03:48;;;;;;;;;;;;;;;16.01;57.89;99432.45;1669551;85;20239;-57
2022/03/31 10:07:03;;;;;;;;;;;;;;;16.06;57.84;99419.61;1687138;85;20214;-57
2022/03/31 10:10:24;;;;;;;;;;;;;;;16.22;57.57;99412.03;1727783;81;20501;-57
2022/03/31 10:13:35;;;;;;;;;;;;;;;16.38;57.35;99407.75;1691838;84;20260;-57
2022/03/31 10:16:54;;;;;;;;;;;;;;;16.55;56.82;99414.33;1680152;84;20286;-55
2022/03/31 10:20:21;;;;;;;;;;;;;;;16.71;56.43;99405.34;1719771;81;20246;-56
2022/03/31 10:27:08;;;;;;;;;;;;;;;17.00;54.78;99409.08;1741622;82;20214;-57
2022/03/31 10:30:31;;;;;;;;;;;;;;;17.10;54.17;99414.83;1740389;82;20213;-58
2022/03/31 10:33:52;;;;;;;;;;;;;;;17.18;54.15;99408.93;1703572;80;20267;-58
2022/03/31 10:37:01;;;;;;;;;;;;;;;17.27;53.92;99406.94;1712988;83;20584;-58
2022/03/31 10:40:18;;;;;;;;;;;;;;;17.38;53.86;99401.07;1672522;85;20206;-58
2022/03/31 10:43:34;;;;;;;;;;;;;;;17.50;53.41;99404.70;1688625;85;20218;-58
2022/03/31 10:46:53;;;;;;;;;;;;;;;17.61;53.04;99399.69;1715487;84;20200;-58
2022/03/31 10:50:11;;;;;;;;;;;;;;;17.71;52.69;99398.52;1683723;85;20206;-56
2022/03/31 10:53:24;;;;;;;;;;;;;;;17.81;52.55;99399.55;1699212;84;20196;-56
2022/03/31 10:56:44;;;;;;;;;;;;;;;17.93;51.93;99387.59;1674694;84;20212;-60
2022/03/31 10:59:59;;;;;;;;;;;;;;;18.03;51.95;99380.88;1690879;84;20218;-56
2022/03/31 11:03:24;;;;;;;;;;;;;;;18.12;51.87;99387.15;1686902;85;20218;-56
2022/03/31 11:06:41;;;;;;;;;;;;;;;18.20;51.53;99385.91;1717630;83;20220;-55
2022/03/31 11:10:13;;;;;;;;;;;;;;;18.24;51.27;99387.92;1710728;83;20509;-54
2022/03/31 11:13:24;;;;;;;;;;;;;;;18.27;50.42;99381.88;1736898;82;20219;-55
2022/03/31 11:16:42;;;;;;;;;;;;;;;18.28;50.21;99373.03;1717108;83;20212;-56
2022/03/31 11:19:53;;;;;;;;;;;;;;;18.29;49.94;99376.08;1716615;83;20252;-55
2022/03/31 11:23:03;;;;;;;;;;;;;;;18.28;49.36;99371.64;1709703;82;20219;-55
2022/03/31 11:26:09;;;;;;;;;;;;;;;18.28;48.78;99365.56;1688207;84;20215;-56
2022/03/31 11:29:24;;;;;;;;;;;;;;;18.30;48.33;99357.00;1701293;83;20207;-55
2022/03/31 11:32:40;;;;;;;;;;;;;;;18.33;48.03;99367.02;1719356;80;20212;-55
2022/03/31 11:35:46;;;;;;;;;;;;;;;18.36;47.90;99367.89;1705119;83;20223;-55
2022/03/31 11:38:55;;;;;;;;;;;;;;;18.41;47.12;99356.12;1716377;82;20220;-54
2022/03/31 11:56:26;;;;;;;;;;;;;;;18.70;45.69;99353.00;1719623;83;20255;-55
2022/03/31 11:59:36;;;;;;;;;;;;;;;18.68;45.76;99360.72;1723948;81;20218;-56
2022/03/31 12:02:49;;;;;;;;;;;;;;;18.68;45.73;99364.06;1749644;80;20194;-55
2022/03/31 12:06:04;;;;;;;;;;;;;;;18.68;45.81;99359.33;1728658;81;20205;-57
2022/03/31 12:16:55;;;;;;;;;;;;;;;18.65;45.67;99367.31;1717987;83;20247;-57
2022/03/31 12:20:09;;;;;;;;;;;;;;;18.66;45.58;99359.30;1688928;85;20641;-56
2022/03/31 12:23:33;;;;;;;;;;;;;;;18.67;45.38;99354.89;1717838;83;20208;-55
2022/03/31 12:26:44;;;;;;;;;;;;;;;18.76;45.31;99353.36;1741181;81;20287;-55
2022/03/31 12:30:20;;;;;;;;;;;;;;;18.89;45.33;99350.24;1675867;85;20217;-56
2022/03/31 12:33:24;;;;;;;;;;;;;;;19.11;45.09;99346.11;1719129;81;20210;-55
2022/03/31 12:36:36;;;;;;;;;;;;;;;19.32;44.59;99346.72;1738006;82;20210;-58
2022/03/31 12:39:52;;;;;;;;;;;;;;;19.46;44.17;99358.27;1740065;82;20206;-55
2022/03/31 12:43:13;;;;;;;;;;;;;;;19.51;43.72;99356.95;1743294;82;20216;-56
2022/03/31 12:46:28;;;;;;;;;;;;;;;19.55;43.70;99351.19;1743576;82;20340;-61
2022/03/31 12:49:40;;;;;;;;;;;;;;;19.57;43.73;99349.81;1745010;82;20574;-58
2022/03/31 12:53:12;;;;;;;;;;;;;;;19.57;43.51;99351.20;1715894;83;20213;-57
2022/03/31 12:56:34;;;;;;;;;;;;;;;19.55;43.23;99344.24;1713563;83;20208;-58
2022/03/31 12:59:45;;;;;;;;;;;;;;;19.53;43.05;99353.37;1716125;83;20287;-56
2022/03/31 13:02:59;;;;;;;;;;;;;;;19.51;42.81;99348.08;1716899;82;20226;-64
2022/03/31 13:06:09;;;;;;;;;;;;;;;19.52;42.85;99348.93;1744037;82;20366;-58
2022/03/31 13:09:19;;;;;;;;;;;;;;;19.57;42.63;99335.12;1740448;82;20518;-57
2022/03/31 13:12:28;;;;;;;;;;;;;;;19.66;42.50;99339.10;1744226;82;20466;-59
2022/03/31 13:15:35;;;;;;;;;;;;;;;19.76;42.30;99323.92;1715648;84;20288;-57
2022/03/31 13:18:43;;;;;;;;;;;;;;;19.85;42.17;99327.36;1715604;83;20224;-56
2022/03/31 13:22:02;;;;;;;;;;;;;;;19.93;41.63;99331.63;1715859;83;20212;-58
2022/03/31 13:25:11;;;;;;;;;;;;;;;20.00;41.33;99326.69;1713620;83;20259;-59
2022/03/31 13:28:22;;;;;;;;;;;;;;;20.08;41.07;99326.22;1715424;83;20315;-56
2022/03/31 13:31:35;;;;;;;;;;;;;;;20.20;40.53;99333.89;1715974;83;20287;-57
2022/03/31 13:34:46;;;;;;;;;;;;;;;20.33;40.18;99325.09;1717178;82;20228;-58
2022/03/31 13:38:01;;;;;;;;;;;;;;;20.51;39.59;99323.31;1689970;85;20190;-58
2022/03/31 13:41:13;;;;;;;;;;;;;;;20.65;39.33;99324.53;1690641;85;20550;-58
2022/03/31 13:44:31;;;;;;;;;;;;;;;20.72;38.79;99325.97;1690690;85;20206;-57
2022/03/31 13:47:39;;;;;;;;;;;;;;;20.76;38.55;99329.06;1690447;85;20242;-57
2022/03/31 13:50:48;;;;;;;;;;;;;;;20.76;38.60;99329.91;1689951;85;20563;-57
2022/03/31 13:54:05;;;;;;;;;;;;;;;20.75;38.51;99320.45;1690416;85;20198;-57
2022/03/31 14:04:22;;;;;;;;;;;;;;;20.75;38.21;99327.40;1679671;85;20195;-57
2022/03/31 14:07:30;;;;;;;;;;;;;;;20.74;37.94;99325.70;1690178;85;20266;-56
2022/03/31 14:10:37;;;;;;;;;;;;;;;20.71;37.76;99324.85;1690124;85;20242;-58
2022/03/31 14:13:47;;;;;;;;;;;;;;;20.67;37.93;99320.41;1689856;85;20479;-56
2022/03/31 14:17:02;;;;;;;;;;;;;;;20.64;37.72;99320.09;1689442;85;20210;-57
2022/03/31 14:20:11;;;;;;;;;;;;;;;20.61;37.95;99319.23;1689925;85;20218;-57
2022/03/31 14:23:20;;;;;;;;;;;;;;;20.56;38.03;99321.97;1689192;85;20218;-57
2022/03/31 14:26:38;;;;;;;;;;;;;;;20.52;38.19;99318.03;1690266;85;20190;-58
2022/03/31 14:29:49;;;;;;;;;;;;;;;20.46;38.45;99323.27;1690469;85;20314;-57
2022/03/31 14:33:06;;;;;;;;;;;;;;;20.39;38.41;99321.28;1709155;83;20192;-57
2022/03/31 14:36:15;;;;;;;;;;;;;;;20.32;38.62;99320.65;1703557;82;20513;-56
2022/03/31 14:39:27;;;;;;;;;;;;;;;20.25;38.53;99329.20;1668972;85;20228;-59
2022/03/31 14:42:51;;;;;;;;;;;;;;;20.19;38.86;99326.63;1660947;86;20501;-61
2022/03/31 14:46:01;;;;;;;;;;;;;;;20.12;38.97;99337.93;1679416;84;20238;-61
2022/03/31 14:49:16;;;;;;;;;;;;;;;20.03;39.12;99335.34;1710335;83;20200;-59
2022/03/31 14:52:24;;;;;;;;;;;;;;;19.96;39.19;99328.33;1709458;83;20189;-61
2022/03/31 14:55:33;;;;;;;;;;;;;;;19.87;39.37;99321.00;1709887;83;20243;-60
2022/03/31 14:58:44;;;;;;;;;;;;;;;19.80;39.55;99330.65;1709309;83;20212;-61
2022/03/31 15:01:51;;;;;;;;;;;;;;;19.71;39.95;99328.06;1705912;84;20212;-60
2022/03/31 15:04:59;;;;;;;;;;;;;;;19.62;40.03;99326.82;1704674;83;20196;-61
2022/03/31 15:08:12;;;;;;;;;;;;;;;19.52;40.24;99331.70;1712235;84;20200;-60
2022/03/31 15:14:46;;;;;;;;;;;;;;;19.33;40.39;99340.06;1713325;84;20196;-59
2022/03/31 15:17:54;;;;;;;;;;;;;;;19.22;40.50;99336.83;1713102;83;20184;-60
2022/03/31 15:21:07;;;;;;;;;;;;;;;19.11;40.62;99328.08;1713231;84;20224;-60
2022/03/31 15:24:17;;;;;;;;;;;;;;;18.99;40.80;99332.91;1704318;83;20266;-60
2022/03/31 15:27:26;;;;;;;;;;;;;;;18.89;41.01;99334.98;1693247;84;20266;-59
2022/03/31 15:30:36;;;;;;;;;;;;;;;18.80;41.25;99341.22;1712110;83;20208;-59
2022/03/31 15:33:45;;;;;;;;;;;;;;;18.70;41.39;99333.59;1711682;83;20289;-60
2022/03/31 15:36:55;;;;;;;;;;;;;;;18.62;41.46;99335.40;1715146;80;20212;-60
2022/03/31 15:40:08;;;;;;;;;;;;;;;18.53;41.68;99336.92;1749681;81;20190;-59
2022/03/31 15:43:18;;;;;;;;;;;;;;;18.43;41.83;99332.59;1749624;82;20232;-63
2022/03/31 15:46:27;;;;;;;;;;;;;;;18.36;42.01;99340.75;1749702;81;20253;-60
2022/03/31 15:49:36;;;;;;;;;;;;;;;18.28;42.11;99343.94;1719157;83;20285;-60
2022/03/31 15:52:43;;;;;;;;;;;;;;;18.19;42.38;99343.49;1702601;83;20251;-59
2022/03/31 15:55:57;;;;;;;;;;;;;;;18.11;42.49;99341.13;1719577;83;20208;-61
2022/03/31 15:59:08;;;;;;;;;;;;;;;18.04;42.66;99350.16;1719864;83;20220;-60
2022/03/31 16:02:23;;;;;;;;;;;;;;;17.96;42.85;99353.33;1632785;86;20205;-59
2022/03/31 16:05:33;;;;;;;;;;;;;;;17.89;42.98;99354.02;1625699;87;20495;-61
2022/03/31 16:08:41;;;;;;;;;;;;;;;17.81;43.19;99357.17;1640627;87;20225;-60
2022/03/31 16:11:53;;;;;;;;;;;;;;;17.74;43.44;99359.27;1662466;85;20223;-59
2022/03/31 16:15:02;;;;;;;;;;;;;;;17.66;43.82;99364.62;1614325;88;20204;-61
2022/03/31 16:18:08;;;;;;;;;;;;;;;17.59;44.22;99372.78;1622122;88;20248;-60
2022/03/31 16:21:19;;;;;;;;;;;;;;;17.51;44.59;99375.94;1621515;88;20196;-61
2022/03/31 16:24:29;;;;;;;;;;;;;;;17.42;44.93;99371.84;1619110;88;20204;-61
2022/03/31 16:27:38;;;;;;;;;;;;;;;17.33;45.21;99382.44;1605650;89;20223;-61
2022/03/31 16:30:49;;;;;;;;;;;;;;;17.26;45.50;99382.28;1609003;88;20231;-59
2022/03/31 16:34:15;;;;;;;;;;;;;;;17.16;45.73;99388.43;1606698;88;20480;-61
2022/03/31 16:37:25;;;;;;;;;;;;;;;17.09;45.91;99391.03;1675668;85;20294;-59
2022/03/31 16:40:33;;;;;;;;;;;;;;;17.02;46.08;99398.59;1626525;87;20235;-63
2022/03/31 16:43:45;;;;;;;;;;;;;;;16.95;46.19;99396.52;1621852;88;20259;-61
2022/03/31 16:46:56;;;;;;;;;;;;;;;16.87;46.41;99396.31;1607821;89;20203;-60
2022/03/31 16:50:06;;;;;;;;;;;;;;;16.81;46.59;99395.07;1642259;87;20229;-60
2022/03/31 16:53:18;;;;;;;;;;;;;;;16.74;46.80;99402.09;1614892;88;20271;-60
2022/03/31 16:56:26;;;;;;;;;;;;;;;16.67;46.99;99400.50;1614883;89;20317;-59
2022/03/31 16:59:37;;;;;;;;;;;;;;;16.60;47.13;99413.61;1615225;88;20204;-59
2022/03/31 17:02:43;;;;;;;;;;;;;;;16.53;47.32;99413.72;1616807;86;20248;-58
2022/03/31 17:05:50;;;;;;;;;;;;;;;16.44;47.56;99422.88;1683831;85;20187;-59
2022/03/31 17:08:59;;;;;;;;;;;;;;;16.38;47.74;99430.70;1680000;85;20289;-61
2022/03/31 17:12:10;;;;;;;;;;;;;;;16.32;47.91;99437.70;1680396;85;20190;-59
2022/03/31 17:15:17;;;;;;;;;;;;;;;16.25;48.08;99443.33;1686889;85;20194;-59
2022/03/31 17:18:26;;;;;;;;;;;;;;;16.20;48.25;99447.36;1669178;85;20290;-60
2022/03/31 17:21:32;;;;;;;;;;;;;;;16.14;48.38;99446.89;1632170;87;20239;-61
2022/03/31 17:24:40;;;;;;;;;;;;;;;16.10;48.52;99444.30;1676096;85;20247;-60